N314LF SYCJ-SVMG
Flight info
| Callsign | N314LF |
|---|---|
| Flight time | 1h 45m |
| Altitude | 24000 |
| Route | SIRAG DCT BOLAP DCT EC100 DCT EC410 DCT LIKEV G443 PANAX/N0327F300 UG443 AKROK/N0334F320 UG443 MUN/N0300F240 A300 PILAR DCT UGEMI DCT MT13A |
| Aircraft | C550/L-SDFGHRWY/S |
Departure
| Time | 2026-04-28 18:56 |
|---|---|
| Airport | Cheddi Jagan International Airport (SYCJ) |
Arrival
| Time | 2026-04-28 20:42 |
|---|---|
| Airport | Del Caribe Santiago Mariño International Airport (SVMG) |
| Time | Latitude | Longitude | Altitude | Speed | Heading |
|---|---|---|---|---|---|
| 2026-04-28 18:49 | 6.50206 | -58.25404 | 100 ft | 0 kts | 43° |
| 2026-04-28 18:50 | 6.50210 | -58.25399 | 100 ft | 1 kts | 52° |
| 2026-04-28 18:50 | 6.50218 | -58.25381 | 100 ft | 3 kts | 72° |
| 2026-04-28 18:51 | 6.50227 | -58.25349 | 100 ft | 5 kts | 57° |
| 2026-04-28 18:51 | 6.50255 | -58.25313 | 100 ft | 7 kts | 72° |
| 2026-04-28 18:51 | 6.50246 | -58.25284 | 100 ft | 5 kts | 139° |
| 2026-04-28 18:51 | 6.50210 | -58.25263 | 100 ft | 7 kts | 148° |
| 2026-04-28 18:52 | 6.50162 | -58.25259 | 100 ft | 8 kts | 227° |
| 2026-04-28 18:52 | 6.50119 | -58.25310 | 100 ft | 10 kts | 224° |
| 2026-04-28 18:52 | 6.50063 | -58.25366 | 100 ft | 12 kts | 224° |
| 2026-04-28 18:52 | 6.49999 | -58.25430 | 100 ft | 13 kts | 224° |
| 2026-04-28 18:53 | 6.49926 | -58.25503 | 100 ft | 15 kts | 225° |
| 2026-04-28 18:53 | 6.49843 | -58.25579 | 100 ft | 17 kts | 229° |
| 2026-04-28 18:53 | 6.49759 | -58.25669 | 100 ft | 18 kts | 226° |
| 2026-04-28 18:53 | 6.49665 | -58.25764 | 100 ft | 19 kts | 227° |
| 2026-04-28 18:54 | 6.49564 | -58.25864 | 100 ft | 21 kts | 223° |
| 2026-04-28 18:54 | 6.49459 | -58.25969 | 100 ft | 22 kts | 225° |
| 2026-04-28 18:54 | 6.49388 | -58.26031 | 100 ft | 13 kts | 216° |
| 2026-04-28 18:54 | 6.49323 | -58.26104 | 100 ft | 14 kts | 227° |
| 2026-04-28 18:55 | 6.49263 | -58.26127 | 100 ft | 3 kts | 163° |
| 2026-04-28 18:55 | 6.49242 | -58.26116 | 100 ft | 7 kts | 145° |
| 2026-04-28 18:55 | 6.49204 | -58.26057 | 100 ft | 8 kts | 85° |
| 2026-04-28 18:55 | 6.49269 | -58.25996 | 100 ft | 21 kts | 39° |
| 2026-04-28 18:56 | 6.49556 | -58.25714 | 100 ft | 96 kts | 45° |
| 2026-04-28 18:56 | 6.50152 | -58.25122 | 339 ft | 136 kts | 45° |
| 2026-04-28 18:56 | 6.50863 | -58.24392 | 899 ft | 155 kts | 45° |
| 2026-04-28 18:56 | 6.51688 | -58.23524 | 1236 ft | 191 kts | 47° |
| 2026-04-28 18:57 | 6.52637 | -58.22489 | 1599 ft | 205 kts | 47° |
| 2026-04-28 18:57 | 6.53599 | -58.21442 | 2097 ft | 208 kts | 47° |
| 2026-04-28 18:57 | 6.54608 | -58.20393 | 2601 ft | 209 kts | 43° |
| 2026-04-28 18:57 | 6.55689 | -58.19421 | 3100 ft | 210 kts | 41° |
| 2026-04-28 18:58 | 6.56776 | -58.18453 | 3597 ft | 211 kts | 42° |
| 2026-04-28 18:58 | 6.57828 | -58.17440 | 4096 ft | 211 kts | 45° |
| 2026-04-28 18:58 | 6.58864 | -58.16411 | 4595 ft | 211 kts | 45° |
| 2026-04-28 18:58 | 6.59901 | -58.15374 | 5096 ft | 210 kts | 45° |
| 2026-04-28 18:59 | 6.60922 | -58.14353 | 5592 ft | 208 kts | 45° |
| 2026-04-28 18:59 | 6.61946 | -58.13329 | 6093 ft | 207 kts | 45° |
| 2026-04-28 18:59 | 6.62990 | -58.12366 | 6582 ft | 205 kts | 31° |
| 2026-04-28 18:59 | 6.64372 | -58.12052 | 6967 ft | 208 kts | 0° |
| 2026-04-28 19:00 | 6.65799 | -58.12325 | 7346 ft | 211 kts | 340° |
| 2026-04-28 19:00 | 6.67143 | -58.12917 | 7722 ft | 214 kts | 334° |
| 2026-04-28 19:00 | 6.68479 | -58.13592 | 8099 ft | 216 kts | 333° |
| 2026-04-28 19:00 | 6.69814 | -58.14281 | 8473 ft | 218 kts | 333° |
| 2026-04-28 19:01 | 6.71170 | -58.14981 | 8850 ft | 220 kts | 333° |
| 2026-04-28 19:01 | 6.72449 | -58.15642 | 9204 ft | 220 kts | 333° |
| 2026-04-28 19:01 | 6.73802 | -58.16340 | 9576 ft | 221 kts | 333° |
| 2026-04-28 19:01 | 6.75142 | -58.17107 | 9949 ft | 221 kts | 320° |
| 2026-04-28 19:02 | 6.76250 | -58.18150 | 10325 ft | 221 kts | 315° |
| 2026-04-28 19:02 | 6.77299 | -58.19291 | 10703 ft | 221 kts | 311° |
| 2026-04-28 19:02 | 6.78289 | -58.20454 | 11075 ft | 220 kts | 310° |
| 2026-04-28 19:02 | 6.79274 | -58.21630 | 11450 ft | 219 kts | 310° |
| 2026-04-28 19:03 | 6.80251 | -58.22797 | 11823 ft | 218 kts | 310° |
| 2026-04-28 19:03 | 6.81228 | -58.23965 | 12199 ft | 217 kts | 310° |
| 2026-04-28 19:03 | 6.82193 | -58.25119 | 12571 ft | 216 kts | 310° |
| 2026-04-28 19:03 | 6.83148 | -58.26260 | 12942 ft | 214 kts | 310° |
| 2026-04-28 19:04 | 6.84087 | -58.27415 | 13313 ft | 213 kts | 302° |
| 2026-04-28 19:04 | 6.84542 | -58.28797 | 13688 ft | 211 kts | 277° |
| 2026-04-28 19:04 | 6.84521 | -58.30273 | 14066 ft | 211 kts | 263° |
| 2026-04-28 19:04 | 6.84287 | -58.31734 | 14442 ft | 211 kts | 259° |
| 2026-04-28 19:05 | 6.84011 | -58.33185 | 14817 ft | 211 kts | 259° |
| 2026-04-28 19:05 | 6.83730 | -58.34623 | 15189 ft | 211 kts | 259° |
| 2026-04-28 19:05 | 6.83450 | -58.36060 | 15562 ft | 210 kts | 259° |
| 2026-04-28 19:05 | 6.83172 | -58.37492 | 15936 ft | 210 kts | 259° |
| 2026-04-28 19:06 | 6.82890 | -58.38942 | 16281 ft | 212 kts | 259° |
| 2026-04-28 19:06 | 6.82701 | -58.39914 | 16498 ft | 215 kts | 259° |
| 2026-04-28 19:06 | 6.82317 | -58.41884 | 16932 ft | 218 kts | 259° |
| 2026-04-28 19:06 | 6.82024 | -58.43389 | 17259 ft | 221 kts | 259° |
| 2026-04-28 19:07 | 6.81726 | -58.44920 | 17587 ft | 223 kts | 259° |
| 2026-04-28 19:07 | 6.81429 | -58.46443 | 17911 ft | 225 kts | 259° |
| 2026-04-28 19:07 | 6.81129 | -58.47982 | 18235 ft | 226 kts | 259° |
| 2026-04-28 19:07 | 6.80825 | -58.49545 | 18563 ft | 227 kts | 259° |
| 2026-04-28 19:08 | 6.80524 | -58.51087 | 18884 ft | 228 kts | 259° |
| 2026-04-28 19:08 | 6.80219 | -58.52651 | 19209 ft | 228 kts | 259° |
| 2026-04-28 19:08 | 6.79913 | -58.54221 | 19535 ft | 229 kts | 259° |
| 2026-04-28 19:08 | 6.79610 | -58.55777 | 19857 ft | 229 kts | 259° |
| 2026-04-28 19:09 | 6.79300 | -58.57364 | 20186 ft | 228 kts | 259° |
| 2026-04-28 19:09 | 6.78997 | -58.58918 | 20508 ft | 228 kts | 259° |
| 2026-04-28 19:09 | 6.78693 | -58.60474 | 20831 ft | 227 kts | 259° |
| 2026-04-28 19:09 | 6.78388 | -58.62035 | 21156 ft | 226 kts | 259° |
| 2026-04-28 19:10 | 6.78089 | -58.63568 | 21477 ft | 225 kts | 259° |
| 2026-04-28 19:10 | 6.77787 | -58.65116 | 21802 ft | 224 kts | 259° |
| 2026-04-28 19:10 | 6.77630 | -58.66637 | 22124 ft | 222 kts | 279° |
| 2026-04-28 19:10 | 6.78148 | -58.68108 | 22469 ft | 222 kts | 296° |
| 2026-04-28 19:11 | 6.78891 | -58.69467 | 22796 ft | 223 kts | 301° |
| 2026-04-28 19:11 | 6.79708 | -58.70804 | 23056 ft | 227 kts | 302° |
| 2026-04-28 19:11 | 6.80562 | -58.72133 | 23307 ft | 231 kts | 303° |
| 2026-04-28 19:11 | 6.81456 | -58.73490 | 23560 ft | 234 kts | 304° |
| 2026-04-28 19:12 | 6.82368 | -58.74859 | 23812 ft | 238 kts | 304° |
| 2026-04-28 19:12 | 6.83313 | -58.76269 | 23980 ft | 245 kts | 304° |
| 2026-04-28 19:12 | 6.84286 | -58.77716 | 24001 ft | 258 kts | 304° |
| 2026-04-28 19:12 | 6.85323 | -58.79256 | 24004 ft | 271 kts | 304° |
| 2026-04-28 19:13 | 6.86398 | -58.80852 | 24003 ft | 282 kts | 304° |
| 2026-04-28 19:13 | 6.87512 | -58.82506 | 24003 ft | 292 kts | 304° |
| 2026-04-28 19:13 | 6.88671 | -58.84226 | 24002 ft | 301 kts | 304° |
| 2026-04-28 19:13 | 6.89857 | -58.85987 | 24002 ft | 309 kts | 304° |
| 2026-04-28 19:14 | 6.91075 | -58.87796 | 24001 ft | 316 kts | 304° |
| 2026-04-28 19:14 | 6.92326 | -58.89653 | 24001 ft | 321 kts | 304° |
| 2026-04-28 19:14 | 6.93580 | -58.91517 | 24000 ft | 323 kts | 304° |
| 2026-04-28 19:14 | 6.94844 | -58.93394 | 23999 ft | 323 kts | 304° |
| 2026-04-28 19:15 | 6.96100 | -58.95260 | 23999 ft | 323 kts | 304° |
| 2026-04-28 19:15 | 6.97346 | -58.97113 | 23999 ft | 322 kts | 304° |
| 2026-04-28 19:15 | 6.98610 | -58.98991 | 23999 ft | 322 kts | 304° |
| 2026-04-28 19:15 | 6.99436 | -59.00217 | 23999 ft | 322 kts | 304° |
| 2026-04-28 19:16 | 7.01114 | -59.02713 | 23999 ft | 322 kts | 304° |
| 2026-04-28 19:16 | 7.02363 | -59.04568 | 23999 ft | 322 kts | 304° |
| 2026-04-28 19:16 | 7.03617 | -59.06433 | 23999 ft | 322 kts | 304° |
| 2026-04-28 19:16 | 7.04864 | -59.08288 | 23999 ft | 322 kts | 304° |
| 2026-04-28 19:17 | 7.06113 | -59.10146 | 23999 ft | 322 kts | 304° |
| 2026-04-28 19:17 | 7.07363 | -59.12004 | 23999 ft | 322 kts | 304° |
| 2026-04-28 19:17 | 7.08622 | -59.13877 | 23999 ft | 321 kts | 304° |
| 2026-04-28 19:17 | 7.09864 | -59.15725 | 23999 ft | 321 kts | 304° |
| 2026-04-28 19:18 | 7.11117 | -59.17588 | 23999 ft | 321 kts | 304° |
| 2026-04-28 19:18 | 7.12363 | -59.19441 | 23999 ft | 321 kts | 304° |
| 2026-04-28 19:18 | 7.13629 | -59.21326 | 23999 ft | 321 kts | 304° |
| 2026-04-28 19:18 | 7.14851 | -59.23144 | 23999 ft | 321 kts | 304° |
| 2026-04-28 19:19 | 7.16127 | -59.25042 | 23999 ft | 321 kts | 304° |
| 2026-04-28 19:19 | 7.17384 | -59.26913 | 23999 ft | 321 kts | 304° |
| 2026-04-28 19:19 | 7.18633 | -59.28773 | 23999 ft | 321 kts | 304° |
| 2026-04-28 19:19 | 7.19875 | -59.30624 | 23999 ft | 321 kts | 304° |
| 2026-04-28 19:20 | 7.21127 | -59.32487 | 23999 ft | 321 kts | 304° |
| 2026-04-28 19:20 | 7.22386 | -59.34362 | 23999 ft | 321 kts | 304° |
| 2026-04-28 19:20 | 7.23634 | -59.36221 | 23999 ft | 321 kts | 304° |
| 2026-04-28 19:20 | 7.24884 | -59.38083 | 23999 ft | 321 kts | 304° |
| 2026-04-28 19:21 | 7.26133 | -59.39945 | 23999 ft | 321 kts | 304° |
| 2026-04-28 19:21 | 7.27377 | -59.41800 | 23999 ft | 321 kts | 304° |
| 2026-04-28 19:21 | 7.28620 | -59.43650 | 23999 ft | 321 kts | 304° |
| 2026-04-28 19:21 | 7.29882 | -59.45531 | 23999 ft | 321 kts | 304° |
| 2026-04-28 19:22 | 7.31120 | -59.47378 | 23999 ft | 321 kts | 304° |
| 2026-04-28 19:22 | 7.31950 | -59.48615 | 23999 ft | 321 kts | 304° |
| 2026-04-28 19:22 | 7.33628 | -59.51116 | 23999 ft | 321 kts | 304° |
| 2026-04-28 19:22 | 7.34877 | -59.52978 | 23999 ft | 321 kts | 304° |
| 2026-04-28 19:23 | 7.36110 | -59.54819 | 23999 ft | 321 kts | 304° |
| 2026-04-28 19:23 | 7.37360 | -59.56682 | 23999 ft | 321 kts | 304° |
| 2026-04-28 19:23 | 7.38609 | -59.58546 | 23999 ft | 321 kts | 304° |
| 2026-04-28 19:23 | 7.39867 | -59.60422 | 23999 ft | 321 kts | 304° |
| 2026-04-28 19:24 | 7.41110 | -59.62277 | 23999 ft | 321 kts | 304° |
| 2026-04-28 19:24 | 7.42352 | -59.64131 | 23999 ft | 321 kts | 304° |
| 2026-04-28 19:24 | 7.43615 | -59.66015 | 23999 ft | 321 kts | 304° |
| 2026-04-28 19:24 | 7.44859 | -59.67871 | 23999 ft | 321 kts | 304° |
| 2026-04-28 19:25 | 7.46103 | -59.69729 | 23999 ft | 321 kts | 304° |
| 2026-04-28 19:25 | 7.47353 | -59.71595 | 23999 ft | 321 kts | 304° |
| 2026-04-28 19:25 | 7.48603 | -59.73461 | 23999 ft | 322 kts | 304° |
| 2026-04-28 19:25 | 7.49857 | -59.75335 | 23999 ft | 322 kts | 304° |
| 2026-04-28 19:26 | 7.51091 | -59.77177 | 23999 ft | 322 kts | 304° |
| 2026-04-28 19:26 | 7.52344 | -59.79048 | 23999 ft | 322 kts | 304° |
| 2026-04-28 19:26 | 7.53603 | -59.80930 | 23999 ft | 322 kts | 304° |
| 2026-04-28 19:26 | 7.54849 | -59.82791 | 23999 ft | 322 kts | 304° |
| 2026-04-28 19:27 | 7.56090 | -59.84646 | 23999 ft | 322 kts | 304° |
| 2026-04-28 19:27 | 7.57331 | -59.86500 | 23999 ft | 322 kts | 304° |
| 2026-04-28 19:27 | 7.58584 | -59.88372 | 23999 ft | 322 kts | 304° |
| 2026-04-28 19:27 | 7.59835 | -59.90243 | 23999 ft | 322 kts | 304° |
| 2026-04-28 19:28 | 7.61077 | -59.92100 | 23999 ft | 322 kts | 304° |
| 2026-04-28 19:28 | 7.62328 | -59.93971 | 23999 ft | 322 kts | 304° |
| 2026-04-28 19:28 | 7.63585 | -59.95851 | 23999 ft | 322 kts | 304° |
| 2026-04-28 19:28 | 7.64823 | -59.97702 | 23999 ft | 322 kts | 304° |
| 2026-04-28 19:29 | 7.66066 | -59.99561 | 23999 ft | 322 kts | 304° |
| 2026-04-28 19:29 | 7.66905 | -60.00816 | 23999 ft | 322 kts | 304° |
| 2026-04-28 19:29 | 7.68573 | -60.03312 | 23999 ft | 322 kts | 304° |
| 2026-04-28 19:29 | 7.69822 | -60.05180 | 23999 ft | 322 kts | 304° |
| 2026-04-28 19:30 | 7.71062 | -60.07035 | 23999 ft | 322 kts | 304° |
| 2026-04-28 19:30 | 7.72319 | -60.08917 | 23999 ft | 322 kts | 304° |
| 2026-04-28 19:30 | 7.73550 | -60.10760 | 23999 ft | 322 kts | 304° |
| 2026-04-28 19:30 | 7.74802 | -60.12633 | 23999 ft | 322 kts | 304° |
| 2026-04-28 19:31 | 7.76047 | -60.14498 | 23999 ft | 322 kts | 304° |
| 2026-04-28 19:31 | 7.77302 | -60.16376 | 23999 ft | 322 kts | 304° |
| 2026-04-28 19:31 | 7.78553 | -60.18250 | 23999 ft | 322 kts | 304° |
| 2026-04-28 19:31 | 7.79804 | -60.20124 | 23999 ft | 322 kts | 304° |
| 2026-04-28 19:32 | 7.81044 | -60.21981 | 23999 ft | 322 kts | 304° |
| 2026-04-28 19:32 | 7.82287 | -60.23843 | 23999 ft | 322 kts | 304° |
| 2026-04-28 19:32 | 7.83535 | -60.25713 | 23999 ft | 322 kts | 304° |
| 2026-04-28 19:32 | 7.84791 | -60.27596 | 23999 ft | 322 kts | 304° |
| 2026-04-28 19:33 | 7.86028 | -60.29450 | 23999 ft | 322 kts | 304° |
| 2026-04-28 19:33 | 7.87284 | -60.31334 | 23999 ft | 322 kts | 304° |
| 2026-04-28 19:33 | 7.88523 | -60.33199 | 23999 ft | 322 kts | 304° |
| 2026-04-28 19:33 | 7.89767 | -60.35073 | 23999 ft | 322 kts | 304° |
| 2026-04-28 19:34 | 7.91002 | -60.36935 | 23999 ft | 322 kts | 304° |
| 2026-04-28 19:34 | 7.92243 | -60.38806 | 23999 ft | 322 kts | 304° |
| 2026-04-28 19:34 | 7.93497 | -60.40698 | 23999 ft | 322 kts | 304° |
| 2026-04-28 19:34 | 7.94729 | -60.42556 | 23999 ft | 322 kts | 304° |
| 2026-04-28 19:35 | 7.95967 | -60.44423 | 23999 ft | 322 kts | 304° |
| 2026-04-28 19:35 | 7.97222 | -60.46316 | 23999 ft | 322 kts | 304° |
| 2026-04-28 19:35 | 7.98456 | -60.48179 | 23999 ft | 322 kts | 304° |
| 2026-04-28 19:35 | 7.99702 | -60.50059 | 23999 ft | 322 kts | 304° |
| 2026-04-28 19:36 | 8.00943 | -60.51930 | 23999 ft | 322 kts | 304° |
| 2026-04-28 19:36 | 8.02186 | -60.53807 | 23999 ft | 322 kts | 304° |
| 2026-04-28 19:36 | 8.03429 | -60.55683 | 23999 ft | 322 kts | 304° |
| 2026-04-28 19:36 | 8.04672 | -60.57560 | 23999 ft | 322 kts | 304° |
| 2026-04-28 19:37 | 8.05906 | -60.59424 | 23999 ft | 322 kts | 304° |
| 2026-04-28 19:37 | 8.06738 | -60.60679 | 23999 ft | 322 kts | 304° |
| 2026-04-28 19:37 | 8.08389 | -60.63174 | 23999 ft | 322 kts | 304° |
| 2026-04-28 19:37 | 8.09640 | -60.65064 | 23999 ft | 322 kts | 304° |
| 2026-04-28 19:38 | 8.10882 | -60.66940 | 23999 ft | 322 kts | 304° |
| 2026-04-28 19:38 | 8.12123 | -60.68815 | 23999 ft | 322 kts | 304° |
| 2026-04-28 19:38 | 8.13358 | -60.70680 | 23999 ft | 322 kts | 304° |
| 2026-04-28 19:38 | 8.14595 | -60.72550 | 23999 ft | 322 kts | 304° |
| 2026-04-28 19:39 | 8.15843 | -60.74436 | 23999 ft | 322 kts | 304° |
| 2026-04-28 19:39 | 8.17080 | -60.76306 | 23999 ft | 322 kts | 304° |
| 2026-04-28 19:39 | 8.18334 | -60.78202 | 23999 ft | 322 kts | 304° |
| 2026-04-28 19:39 | 8.19571 | -60.80072 | 23999 ft | 322 kts | 304° |
| 2026-04-28 19:40 | 8.20813 | -60.81952 | 23999 ft | 322 kts | 304° |
| 2026-04-28 19:40 | 8.22050 | -60.83822 | 23999 ft | 322 kts | 304° |
| 2026-04-28 19:40 | 8.23287 | -60.85693 | 23999 ft | 322 kts | 304° |
| 2026-04-28 19:40 | 8.24535 | -60.87581 | 23999 ft | 322 kts | 304° |
| 2026-04-28 19:41 | 8.25775 | -60.89457 | 23999 ft | 322 kts | 304° |
| 2026-04-28 19:41 | 8.27023 | -60.91346 | 23999 ft | 322 kts | 304° |
| 2026-04-28 19:41 | 8.28257 | -60.93213 | 23999 ft | 322 kts | 304° |
| 2026-04-28 19:41 | 8.29505 | -60.95102 | 23999 ft | 322 kts | 304° |
| 2026-04-28 19:42 | 8.30741 | -60.96974 | 23999 ft | 322 kts | 304° |
| 2026-04-28 19:42 | 8.31989 | -60.98864 | 23999 ft | 322 kts | 304° |
| 2026-04-28 19:42 | 8.33232 | -61.00746 | 23999 ft | 322 kts | 304° |
| 2026-04-28 19:42 | 8.34047 | -61.01980 | 23999 ft | 322 kts | 304° |
| 2026-04-28 19:43 | 8.35709 | -61.04497 | 23999 ft | 322 kts | 304° |
| 2026-04-28 19:43 | 8.36953 | -61.06383 | 23999 ft | 322 kts | 304° |
| 2026-04-28 19:43 | 8.38193 | -61.08261 | 23999 ft | 322 kts | 304° |
| 2026-04-28 19:43 | 8.39426 | -61.10130 | 23999 ft | 322 kts | 304° |
| 2026-04-28 19:44 | 8.40674 | -61.12020 | 23999 ft | 322 kts | 304° |
| 2026-04-28 19:44 | 8.41905 | -61.13887 | 23999 ft | 322 kts | 304° |
| 2026-04-28 19:44 | 8.43150 | -61.15774 | 23999 ft | 322 kts | 304° |
| 2026-04-28 19:44 | 8.44383 | -61.17645 | 23999 ft | 322 kts | 304° |
| 2026-04-28 19:45 | 8.45639 | -61.19549 | 23999 ft | 322 kts | 304° |
| 2026-04-28 19:45 | 8.46875 | -61.21418 | 23999 ft | 323 kts | 304° |
| 2026-04-28 19:45 | 8.48112 | -61.23286 | 23999 ft | 323 kts | 304° |
| 2026-04-28 19:45 | 8.49366 | -61.25180 | 23999 ft | 323 kts | 304° |
| 2026-04-28 19:46 | 8.50608 | -61.27056 | 23999 ft | 323 kts | 304° |
| 2026-04-28 19:46 | 8.51843 | -61.28921 | 23999 ft | 323 kts | 304° |
| 2026-04-28 19:46 | 8.53097 | -61.30816 | 23999 ft | 323 kts | 304° |
| 2026-04-28 19:46 | 8.54343 | -61.32699 | 23999 ft | 323 kts | 304° |
| 2026-04-28 19:47 | 8.55588 | -61.34580 | 23999 ft | 323 kts | 304° |
| 2026-04-28 19:47 | 8.56838 | -61.36469 | 23999 ft | 323 kts | 304° |
| 2026-04-28 19:47 | 8.58084 | -61.38352 | 23999 ft | 323 kts | 304° |
| 2026-04-28 19:47 | 8.59322 | -61.40225 | 23999 ft | 323 kts | 304° |
| 2026-04-28 19:48 | 8.60563 | -61.42101 | 23999 ft | 323 kts | 304° |
| 2026-04-28 19:48 | 8.61802 | -61.43975 | 23999 ft | 323 kts | 304° |
| 2026-04-28 19:48 | 8.63050 | -61.45862 | 23999 ft | 323 kts | 304° |
| 2026-04-28 19:48 | 8.64306 | -61.47760 | 23963 ft | 324 kts | 304° |
| 2026-04-28 19:49 | 8.65547 | -61.49639 | 23839 ft | 325 kts | 304° |
| 2026-04-28 19:49 | 8.66795 | -61.51527 | 23714 ft | 325 kts | 304° |
| 2026-04-28 19:49 | 8.68056 | -61.53436 | 23588 ft | 325 kts | 304° |
| 2026-04-28 19:49 | 8.69306 | -61.55328 | 23464 ft | 324 kts | 304° |
| 2026-04-28 19:50 | 8.71805 | -61.59110 | 23214 ft | 324 kts | 304° |
| 2026-04-28 19:50 | 8.73053 | -61.61000 | 23089 ft | 324 kts | 304° |
| 2026-04-28 19:50 | 8.74306 | -61.62896 | 22963 ft | 324 kts | 304° |
| 2026-04-28 19:51 | 8.75547 | -61.64776 | 22839 ft | 324 kts | 304° |
| 2026-04-28 19:51 | 8.76798 | -61.66672 | 22714 ft | 324 kts | 304° |
| 2026-04-28 19:51 | 8.78038 | -61.68551 | 22590 ft | 324 kts | 304° |
| 2026-04-28 19:51 | 8.79290 | -61.70448 | 22464 ft | 324 kts | 304° |
| 2026-04-28 19:52 | 8.80541 | -61.72345 | 22339 ft | 324 kts | 304° |
| 2026-04-28 19:52 | 8.81794 | -61.74242 | 22213 ft | 324 kts | 304° |
| 2026-04-28 19:52 | 8.83031 | -61.76118 | 22089 ft | 324 kts | 304° |
| 2026-04-28 19:52 | 8.84283 | -61.78016 | 21964 ft | 324 kts | 304° |
| 2026-04-28 19:53 | 8.85524 | -61.79896 | 21839 ft | 324 kts | 304° |
| 2026-04-28 19:53 | 8.86779 | -61.81801 | 21690 ft | 324 kts | 304° |
| 2026-04-28 19:53 | 8.88007 | -61.83662 | 21439 ft | 317 kts | 304° |
| 2026-04-28 19:53 | 8.89211 | -61.85490 | 21189 ft | 312 kts | 304° |
| 2026-04-28 19:54 | 8.90410 | -61.87310 | 20936 ft | 308 kts | 304° |
| 2026-04-28 19:54 | 8.91586 | -61.89095 | 20687 ft | 306 kts | 304° |
| 2026-04-28 19:54 | 8.92757 | -61.90871 | 20437 ft | 304 kts | 304° |
| 2026-04-28 19:54 | 8.93923 | -61.92641 | 20186 ft | 302 kts | 304° |
| 2026-04-28 19:55 | 8.95082 | -61.94400 | 19935 ft | 300 kts | 304° |
| 2026-04-28 19:55 | 8.96243 | -61.96164 | 19683 ft | 299 kts | 304° |
| 2026-04-28 19:55 | 8.97386 | -61.97899 | 19434 ft | 298 kts | 304° |
| 2026-04-28 19:55 | 8.98528 | -61.99633 | 19184 ft | 297 kts | 304° |
| 2026-04-28 19:56 | 8.99662 | -62.01355 | 18935 ft | 296 kts | 304° |
| 2026-04-28 19:56 | 9.00800 | -62.03083 | 18769 ft | 294 kts | 304° |
| 2026-04-28 19:56 | 9.01928 | -62.04796 | 18620 ft | 294 kts | 304° |
| 2026-04-28 19:56 | 9.03062 | -62.06520 | 18470 ft | 295 kts | 304° |
| 2026-04-28 19:57 | 9.04208 | -62.08261 | 18319 ft | 295 kts | 304° |
| 2026-04-28 19:57 | 9.05342 | -62.09985 | 18169 ft | 295 kts | 304° |
| 2026-04-28 19:57 | 9.06472 | -62.11703 | 18020 ft | 296 kts | 304° |
| 2026-04-28 19:57 | 9.07617 | -62.13443 | 17870 ft | 296 kts | 304° |
| 2026-04-28 19:58 | 9.08752 | -62.15169 | 17720 ft | 296 kts | 304° |
| 2026-04-28 19:58 | 9.09879 | -62.16884 | 17572 ft | 296 kts | 304° |
| 2026-04-28 19:58 | 9.11029 | -62.18631 | 17420 ft | 296 kts | 304° |
| 2026-04-28 19:58 | 9.12167 | -62.20361 | 17270 ft | 296 kts | 304° |
| 2026-04-28 19:59 | 9.13296 | -62.22080 | 17122 ft | 296 kts | 304° |
| 2026-04-28 19:59 | 9.14434 | -62.23811 | 16972 ft | 296 kts | 304° |
| 2026-04-28 19:59 | 9.15582 | -62.25559 | 16820 ft | 296 kts | 304° |
| 2026-04-28 19:59 | 9.16714 | -62.27282 | 16671 ft | 296 kts | 304° |
| 2026-04-28 20:00 | 9.17856 | -62.29019 | 16521 ft | 296 kts | 304° |
| 2026-04-28 20:00 | 9.18984 | -62.30735 | 16372 ft | 296 kts | 304° |
| 2026-04-28 20:00 | 9.20122 | -62.32468 | 16222 ft | 296 kts | 304° |
| 2026-04-28 20:00 | 9.21264 | -62.34207 | 16071 ft | 296 kts | 304° |
| 2026-04-28 20:01 | 9.22399 | -62.35936 | 15922 ft | 296 kts | 304° |
| 2026-04-28 20:01 | 9.23546 | -62.37682 | 15770 ft | 296 kts | 304° |
| 2026-04-28 20:01 | 9.24678 | -62.39407 | 15621 ft | 296 kts | 304° |
| 2026-04-28 20:01 | 9.25810 | -62.41132 | 15472 ft | 296 kts | 304° |
| 2026-04-28 20:02 | 9.26949 | -62.42867 | 15321 ft | 296 kts | 304° |
| 2026-04-28 20:02 | 9.28082 | -62.44594 | 15172 ft | 296 kts | 304° |
| 2026-04-28 20:02 | 9.29228 | -62.46340 | 15021 ft | 296 kts | 304° |
| 2026-04-28 20:02 | 9.30357 | -62.48061 | 14871 ft | 296 kts | 304° |
| 2026-04-28 20:03 | 9.31498 | -62.49801 | 14721 ft | 296 kts | 304° |
| 2026-04-28 20:03 | 9.32633 | -62.51531 | 14571 ft | 296 kts | 304° |
| 2026-04-28 20:03 | 9.33768 | -62.53262 | 14421 ft | 295 kts | 304° |
| 2026-04-28 20:03 | 9.34893 | -62.54979 | 14272 ft | 295 kts | 304° |
| 2026-04-28 20:04 | 9.36036 | -62.56721 | 14121 ft | 295 kts | 304° |
| 2026-04-28 20:04 | 9.37163 | -62.58441 | 13972 ft | 295 kts | 304° |
| 2026-04-28 20:04 | 9.38291 | -62.60162 | 13822 ft | 295 kts | 304° |
| 2026-04-28 20:04 | 9.39438 | -62.61911 | 13671 ft | 295 kts | 304° |
| 2026-04-28 20:05 | 9.40571 | -62.63641 | 13521 ft | 295 kts | 304° |
| 2026-04-28 20:05 | 9.41699 | -62.65363 | 13397 ft | 295 kts | 303° |
| 2026-04-28 20:05 | 9.42826 | -62.67084 | 13271 ft | 291 kts | 303° |
| 2026-04-28 20:05 | 9.43923 | -62.68759 | 13146 ft | 286 kts | 303° |
| 2026-04-28 20:06 | 9.45015 | -62.70428 | 13019 ft | 282 kts | 303° |
| 2026-04-28 20:06 | 9.46097 | -62.72080 | 12893 ft | 279 kts | 303° |
| 2026-04-28 20:06 | 9.47157 | -62.73700 | 12791 ft | 276 kts | 303° |
| 2026-04-28 20:06 | 9.48207 | -62.75305 | 12690 ft | 273 kts | 303° |
| 2026-04-28 20:07 | 9.49247 | -62.76893 | 12630 ft | 269 kts | 303° |
| 2026-04-28 20:07 | 9.49930 | -62.77937 | 12596 ft | 267 kts | 303° |
| 2026-04-28 20:07 | 9.51290 | -62.80016 | 12528 ft | 264 kts | 303° |
| 2026-04-28 20:07 | 9.52313 | -62.81579 | 12478 ft | 265 kts | 303° |
| 2026-04-28 20:08 | 9.53323 | -62.83123 | 12428 ft | 265 kts | 303° |
| 2026-04-28 20:08 | 9.54346 | -62.84687 | 12378 ft | 265 kts | 303° |
| 2026-04-28 20:08 | 9.55362 | -62.86241 | 12324 ft | 266 kts | 303° |
| 2026-04-28 20:08 | 9.56383 | -62.87802 | 12249 ft | 267 kts | 303° |
| 2026-04-28 20:09 | 9.57413 | -62.89377 | 12174 ft | 268 kts | 303° |
| 2026-04-28 20:09 | 9.58442 | -62.90951 | 12099 ft | 269 kts | 303° |
| 2026-04-28 20:09 | 9.59473 | -62.92529 | 12025 ft | 269 kts | 303° |
| 2026-04-28 20:09 | 9.60505 | -62.94108 | 11950 ft | 270 kts | 303° |
| 2026-04-28 20:10 | 9.61544 | -62.95698 | 11875 ft | 270 kts | 303° |
| 2026-04-28 20:10 | 9.62574 | -62.97274 | 11800 ft | 270 kts | 303° |
| 2026-04-28 20:10 | 9.63616 | -62.98868 | 11725 ft | 270 kts | 303° |
| 2026-04-28 20:10 | 9.64655 | -63.00460 | 11650 ft | 271 kts | 303° |
| 2026-04-28 20:11 | 9.65690 | -63.02044 | 11575 ft | 271 kts | 303° |
| 2026-04-28 20:11 | 9.66721 | -63.03624 | 11500 ft | 271 kts | 303° |
| 2026-04-28 20:11 | 9.67769 | -63.05228 | 11425 ft | 271 kts | 303° |
| 2026-04-28 20:11 | 9.68803 | -63.06811 | 11350 ft | 271 kts | 303° |
| 2026-04-28 20:12 | 9.69839 | -63.08400 | 11275 ft | 271 kts | 303° |
| 2026-04-28 20:12 | 9.70878 | -63.09990 | 11200 ft | 271 kts | 303° |
| 2026-04-28 20:12 | 9.71917 | -63.11583 | 11125 ft | 271 kts | 303° |
| 2026-04-28 20:12 | 9.72612 | -63.12648 | 11075 ft | 271 kts | 303° |
| 2026-04-28 20:13 | 9.74059 | -63.14714 | 10974 ft | 271 kts | 316° |
| 2026-04-28 20:13 | 9.75512 | -63.15923 | 10906 ft | 271 kts | 322° |
| 2026-04-28 20:13 | 9.77021 | -63.17059 | 10831 ft | 271 kts | 324° |
| 2026-04-28 20:13 | 9.78569 | -63.18155 | 10756 ft | 271 kts | 326° |
| 2026-04-28 20:14 | 9.80122 | -63.19229 | 10681 ft | 271 kts | 326° |
| 2026-04-28 20:14 | 9.81676 | -63.20293 | 10607 ft | 271 kts | 326° |
| 2026-04-28 20:14 | 9.83242 | -63.21362 | 10531 ft | 271 kts | 326° |
| 2026-04-28 20:14 | 9.84800 | -63.22424 | 10456 ft | 271 kts | 326° |
| 2026-04-28 20:15 | 9.86361 | -63.23487 | 10381 ft | 271 kts | 326° |
| 2026-04-28 20:15 | 9.87933 | -63.24557 | 10306 ft | 271 kts | 326° |
| 2026-04-28 20:15 | 9.89479 | -63.25610 | 10232 ft | 271 kts | 326° |
| 2026-04-28 20:15 | 9.91052 | -63.26682 | 10156 ft | 271 kts | 326° |
| 2026-04-28 20:16 | 9.92605 | -63.27740 | 10081 ft | 271 kts | 326° |
| 2026-04-28 20:16 | 9.94168 | -63.28804 | 10006 ft | 271 kts | 326° |
| 2026-04-28 20:16 | 9.95740 | -63.29876 | 9931 ft | 271 kts | 326° |
| 2026-04-28 20:16 | 9.97307 | -63.30944 | 9855 ft | 271 kts | 326° |
| 2026-04-28 20:17 | 9.98867 | -63.32007 | 9807 ft | 270 kts | 326° |
| 2026-04-28 20:17 | 10.00414 | -63.33062 | 9813 ft | 267 kts | 326° |
| 2026-04-28 20:17 | 10.01939 | -63.34102 | 9814 ft | 265 kts | 326° |
| 2026-04-28 20:17 | 10.03458 | -63.35138 | 9814 ft | 264 kts | 326° |
| 2026-04-28 20:18 | 10.04986 | -63.36179 | 9814 ft | 262 kts | 326° |
| 2026-04-28 20:18 | 10.05991 | -63.36865 | 9814 ft | 262 kts | 326° |
| 2026-04-28 20:18 | 10.08004 | -63.38237 | 9814 ft | 261 kts | 326° |
| 2026-04-28 20:18 | 10.09490 | -63.39251 | 9814 ft | 260 kts | 326° |
| 2026-04-28 20:19 | 10.10500 | -63.39941 | 9814 ft | 260 kts | 326° |
| 2026-04-28 20:19 | 10.11005 | -63.40285 | 9814 ft | 260 kts | 326° |
| 2026-04-28 20:20 | 10.17141 | -63.44471 | 9814 ft | 259 kts | 326° |
| 2026-04-28 20:20 | 10.18638 | -63.45493 | 9814 ft | 259 kts | 326° |
| 2026-04-28 20:20 | 10.20132 | -63.46514 | 9814 ft | 259 kts | 326° |
| 2026-04-28 20:20 | 10.21612 | -63.47524 | 9814 ft | 258 kts | 326° |
| 2026-04-28 20:21 | 10.23119 | -63.48553 | 9814 ft | 258 kts | 326° |
| 2026-04-28 20:21 | 10.24609 | -63.49571 | 9814 ft | 258 kts | 326° |
| 2026-04-28 20:21 | 10.26086 | -63.50579 | 9814 ft | 258 kts | 326° |
| 2026-04-28 20:21 | 10.27584 | -63.51603 | 9814 ft | 258 kts | 326° |
| 2026-04-28 20:22 | 10.29060 | -63.52611 | 9814 ft | 258 kts | 326° |
| 2026-04-28 20:22 | 10.30559 | -63.53635 | 9814 ft | 258 kts | 326° |
| 2026-04-28 20:22 | 10.32048 | -63.54653 | 9814 ft | 258 kts | 326° |
| 2026-04-28 20:22 | 10.33528 | -63.55664 | 9814 ft | 258 kts | 326° |
| 2026-04-28 20:23 | 10.35023 | -63.56686 | 9814 ft | 258 kts | 326° |
| 2026-04-28 20:23 | 10.36470 | -63.57754 | 9809 ft | 257 kts | 316° |
| 2026-04-28 20:23 | 10.37641 | -63.59085 | 9806 ft | 250 kts | 311° |
| 2026-04-28 20:23 | 10.38379 | -63.59975 | 9785 ft | 246 kts | 309° |
| 2026-04-28 20:24 | 10.39790 | -63.61763 | 9656 ft | 244 kts | 308° |
| 2026-04-28 20:24 | 10.40853 | -63.63142 | 9389 ft | 244 kts | 308° |
| 2026-04-28 20:24 | 10.41861 | -63.64462 | 9089 ft | 234 kts | 308° |
| 2026-04-28 20:24 | 10.42835 | -63.65741 | 8787 ft | 227 kts | 308° |
| 2026-04-28 20:25 | 10.43788 | -63.66996 | 8484 ft | 221 kts | 308° |
| 2026-04-28 20:25 | 10.44717 | -63.68221 | 8182 ft | 217 kts | 308° |
| 2026-04-28 20:25 | 10.45626 | -63.69419 | 7881 ft | 213 kts | 308° |
| 2026-04-28 20:25 | 10.46524 | -63.70602 | 7580 ft | 210 kts | 308° |
| 2026-04-28 20:26 | 10.47401 | -63.71759 | 7343 ft | 205 kts | 308° |
| 2026-04-28 20:26 | 10.48261 | -63.72892 | 7117 ft | 201 kts | 308° |
| 2026-04-28 20:26 | 10.49104 | -63.74005 | 6890 ft | 197 kts | 308° |
| 2026-04-28 20:26 | 10.49934 | -63.75102 | 6663 ft | 194 kts | 308° |
| 2026-04-28 20:27 | 10.50749 | -63.76177 | 6439 ft | 192 kts | 308° |
| 2026-04-28 20:27 | 10.51558 | -63.77244 | 6237 ft | 189 kts | 308° |
| 2026-04-28 20:27 | 10.52353 | -63.78294 | 6036 ft | 186 kts | 308° |
| 2026-04-28 20:27 | 10.53140 | -63.79332 | 5841 ft | 184 kts | 308° |
| 2026-04-28 20:28 | 10.53917 | -63.80357 | 5716 ft | 184 kts | 308° |
| 2026-04-28 20:28 | 10.54699 | -63.81389 | 5594 ft | 187 kts | 308° |
| 2026-04-28 20:28 | 10.55503 | -63.82449 | 5469 ft | 189 kts | 308° |
| 2026-04-28 20:28 | 10.56301 | -63.83502 | 5346 ft | 190 kts | 308° |
| 2026-04-28 20:29 | 10.57112 | -63.84573 | 5221 ft | 192 kts | 308° |
| 2026-04-28 20:29 | 10.57932 | -63.85655 | 5096 ft | 193 kts | 308° |
| 2026-04-28 20:29 | 10.58748 | -63.86731 | 4973 ft | 194 kts | 308° |
| 2026-04-28 20:29 | 10.59569 | -63.87815 | 4848 ft | 194 kts | 308° |
| 2026-04-28 20:30 | 10.60396 | -63.88908 | 4724 ft | 195 kts | 308° |
| 2026-04-28 20:30 | 10.61219 | -63.89994 | 4600 ft | 195 kts | 308° |
| 2026-04-28 20:30 | 10.62049 | -63.91091 | 4475 ft | 196 kts | 308° |
| 2026-04-28 20:30 | 10.62888 | -63.92199 | 4349 ft | 196 kts | 308° |
| 2026-04-28 20:31 | 10.63721 | -63.93298 | 4224 ft | 196 kts | 308° |
| 2026-04-28 20:31 | 10.64553 | -63.94397 | 4099 ft | 197 kts | 308° |
| 2026-04-28 20:31 | 10.65383 | -63.95494 | 3975 ft | 197 kts | 308° |
| 2026-04-28 20:31 | 10.66218 | -63.96597 | 3850 ft | 197 kts | 308° |
| 2026-04-28 20:32 | 10.67048 | -63.97694 | 3726 ft | 197 kts | 308° |
| 2026-04-28 20:32 | 10.67884 | -63.98798 | 3601 ft | 197 kts | 308° |
| 2026-04-28 20:32 | 10.68719 | -63.99903 | 3476 ft | 197 kts | 308° |
| 2026-04-28 20:32 | 10.69554 | -64.01006 | 3351 ft | 197 kts | 308° |
| 2026-04-28 20:33 | 10.70388 | -64.02108 | 3226 ft | 197 kts | 308° |
| 2026-04-28 20:33 | 10.71229 | -64.03221 | 3101 ft | 197 kts | 308° |
| 2026-04-28 20:33 | 10.72066 | -64.04327 | 2976 ft | 197 kts | 308° |
| 2026-04-28 20:33 | 10.72902 | -64.05432 | 2851 ft | 197 kts | 308° |
| 2026-04-28 20:34 | 10.73727 | -64.06524 | 2804 ft | 193 kts | 308° |
| 2026-04-28 20:34 | 10.74530 | -64.07586 | 2799 ft | 188 kts | 308° |
| 2026-04-28 20:34 | 10.75325 | -64.08638 | 2799 ft | 186 kts | 308° |
| 2026-04-28 20:34 | 10.76123 | -64.09694 | 2801 ft | 191 kts | 308° |
| 2026-04-28 20:35 | 10.76943 | -64.10777 | 2801 ft | 196 kts | 308° |
| 2026-04-28 20:35 | 10.77784 | -64.11890 | 2801 ft | 200 kts | 308° |
| 2026-04-28 20:35 | 10.78627 | -64.13005 | 2800 ft | 203 kts | 308° |
| 2026-04-28 20:35 | 10.79502 | -64.14164 | 2800 ft | 205 kts | 308° |
| 2026-04-28 20:36 | 10.80388 | -64.15293 | 2798 ft | 207 kts | 316° |
| 2026-04-28 20:36 | 10.81722 | -64.15781 | 2806 ft | 207 kts | 2° |
| 2026-04-28 20:36 | 10.83112 | -64.15472 | 2803 ft | 209 kts | 23° |
| 2026-04-28 20:36 | 10.84352 | -64.14708 | 2802 ft | 210 kts | 36° |
| 2026-04-28 20:37 | 10.85508 | -64.13790 | 2776 ft | 212 kts | 39° |
| 2026-04-28 20:37 | 10.86654 | -64.12835 | 2631 ft | 206 kts | 39° |
| 2026-04-28 20:37 | 10.87691 | -64.11920 | 2474 ft | 192 kts | 50° |
| 2026-04-28 20:37 | 10.88237 | -64.10810 | 2316 ft | 164 kts | 72° |
| 2026-04-28 20:38 | 10.88538 | -64.09747 | 2155 ft | 148 kts | 75° |
| 2026-04-28 20:38 | 10.88771 | -64.08764 | 1997 ft | 138 kts | 77° |
| 2026-04-28 20:38 | 10.88988 | -64.07833 | 1846 ft | 130 kts | 79° |
| 2026-04-28 20:38 | 10.89121 | -64.06998 | 1757 ft | 118 kts | 81° |
| 2026-04-28 20:39 | 10.89277 | -64.06162 | 1679 ft | 121 kts | 78° |
| 2026-04-28 20:39 | 10.89445 | -64.05311 | 1627 ft | 122 kts | 78° |
| 2026-04-28 20:39 | 10.89621 | -64.04476 | 1555 ft | 119 kts | 75° |
| 2026-04-28 20:39 | 10.89822 | -64.03660 | 1400 ft | 112 kts | 77° |
| 2026-04-28 20:40 | 10.89980 | -64.02916 | 1143 ft | 106 kts | 77° |
| 2026-04-28 20:40 | 10.90129 | -64.02209 | 940 ft | 98 kts | 78° |
| 2026-04-28 20:40 | 10.90269 | -64.01550 | 732 ft | 95 kts | 78° |
| 2026-04-28 20:40 | 10.90395 | -64.00910 | 566 ft | 93 kts | 78° |
| 2026-04-28 20:41 | 10.90524 | -64.00246 | 484 ft | 101 kts | 76° |
| 2026-04-28 20:41 | 10.90680 | -63.99526 | 430 ft | 108 kts | 78° |
| 2026-04-28 20:41 | 10.90821 | -63.98808 | 272 ft | 100 kts | 77° |
| 2026-04-28 20:41 | 10.90953 | -63.98144 | 112 ft | 90 kts | 77° |
| 2026-04-28 20:42 | 10.91073 | -63.97570 | 55 ft | 74 kts | 76° |
| 2026-04-28 20:42 | 10.91159 | -63.97147 | 44 ft | 44 kts | 77° |
| 2026-04-28 20:42 | 10.91218 | -63.96863 | 46 ft | 37 kts | 79° |
| 2026-04-28 20:42 | 10.91263 | -63.96630 | 49 ft | 30 kts | 81° |
| 2026-04-28 20:43 | 10.91301 | -63.96480 | 51 ft | 14 kts | 59° |
| 2026-04-28 20:43 | 10.91370 | -63.96468 | 51 ft | 6 kts | 347° |
| 2026-04-28 20:43 | 10.91407 | -63.96475 | 51 ft | 4 kts | 350° |
| 2026-04-28 20:43 | 10.91428 | -63.96479 | 51 ft | 3 kts | 349° |
| 2026-04-28 20:44 | 10.91475 | -63.96487 | 51 ft | 10 kts | 349° |
| 2026-04-28 20:44 | 10.91540 | -63.96506 | 52 ft | 5 kts | 333° |
| 2026-04-28 20:44 | 10.91571 | -63.96547 | 52 ft | 10 kts | 276° |
| 2026-04-28 20:44 | 10.91553 | -63.96646 | 52 ft | 17 kts | 258° |
| 2026-04-28 20:45 | 10.91524 | -63.96790 | 51 ft | 24 kts | 257° |
| 2026-04-28 20:45 | 10.91491 | -63.96948 | 48 ft | 21 kts | 259° |
| 2026-04-28 20:45 | 10.91439 | -63.97063 | 48 ft | 10 kts | 260° |
| 2026-04-28 20:45 | 10.91440 | -63.97081 | 48 ft | 0 kts | 319° |
| 2026-04-28 20:46 | 10.91453 | -63.97084 | 48 ft | 3 kts | 351° |
| 2026-04-28 20:46 | 10.91484 | -63.97090 | 48 ft | 5 kts | 347° |
| 2026-04-28 20:46 | 10.91503 | -63.97093 | 48 ft | 3 kts | 4° |
| 2026-04-28 20:46 | 10.91510 | -63.97084 | 48 ft | 0 kts | 88° |